»·PEaware :: AUZ081 KLAS-PHNL

AUZ081 :: KLAS-PHNL

FLIGHT INFORMATION

Flight Status: Arrived
Operator:
Australian Airlines
More flights by this operator :: More flights under this callsign
Pilot: Kim E. (65)
Aircraft: BOEING 747-400 (WINGLETS)
(B744)
More flights by this aircraft type
Origin: KLAS McCarran Intl
United States
Destination: PHNL Honolulu Intl
United States
More flights between these airports :: More routes between these airports
Route: +KLAX BOACH5 HEC MAGGI MAGGI3 PHNL
File this flight plan on PilotEdge
Remarks: / V /
Altitude:
(Current/Filed)
400ft
Speed:
(Current/Filed)
520kts
Departed: 01-Dec-13 08:53 AM
Arrived: 01-Dec-13 02:44 PM
Distance/Time
Traveled:
2396nm/5:51
Distance/Time
To Go:
Arrived

Flight Plot

Page will automatically refresh every two minutes.

Flight plan parsing failed; only flown route is shown


Map Options




Map Legend


Flown Route
Filed Route
Departure Airport
Arrival Airport
Navaid (VOR, NDB)
Fix

Horizontal Profiles

Position Reports

Time Latitude Longitude Heading Altitude Ground
Speed
01-Dec-13 07:52 36.079797 -115.135296 356 2193ft 0kts
01-Dec-13 07:56 36.079797 -115.135296 356 2193ft 0kts
01-Dec-13 07:57 36.079797 -115.135296 356 2193ft 0kts
01-Dec-13 07:58 36.079797 -115.135296 356 2193ft 0kts
01-Dec-13 07:59 36.079797 -115.135296 356 2193ft 0kts
01-Dec-13 08:00 36.079797 -115.135296 356 2193ft 0kts
01-Dec-13 08:01 36.079797 -115.135296 356 2193ft 0kts
01-Dec-13 08:02 36.079797 -115.135296 356 2193ft 0kts
01-Dec-13 08:03 36.079797 -115.135296 356 2193ft 0kts
01-Dec-13 08:04 36.079797 -115.135296 356 2193ft 0kts
01-Dec-13 08:05 36.079797 -115.135296 356 2193ft 0kts
01-Dec-13 08:06 36.079797 -115.135296 356 2193ft 0kts
01-Dec-13 08:07 36.079797 -115.135296 356 2193ft 0kts
01-Dec-13 08:08 36.079797 -115.135296 356 2193ft 0kts
01-Dec-13 08:09 36.079797 -115.135296 356 2193ft 0kts
01-Dec-13 08:10 36.079797 -115.135296 356 2193ft 0kts
01-Dec-13 08:11 36.079797 -115.135296 356 2193ft 0kts
01-Dec-13 08:12 36.079797 -115.135296 356 2193ft 0kts
01-Dec-13 08:13 36.079797 -115.135296 356 2193ft 0kts
01-Dec-13 08:14 36.079797 -115.135296 356 2193ft 0kts
01-Dec-13 08:15 36.079797 -115.135296 356 2193ft 0kts
01-Dec-13 08:16 36.079797 -115.135296 356 2193ft 0kts
01-Dec-13 08:17 36.079797 -115.135296 356 2193ft 0kts
01-Dec-13 08:18 36.079797 -115.135296 356 2193ft 0kts
01-Dec-13 08:19 36.079797 -115.135296 356 2193ft 0kts
01-Dec-13 08:20 36.079797 -115.135296 356 2193ft 0kts
01-Dec-13 08:21 36.079797 -115.135296 356 2193ft 0kts
01-Dec-13 08:22 36.079797 -115.135296 356 2193ft 0kts
01-Dec-13 08:23 36.079797 -115.135296 356 2193ft 0kts
01-Dec-13 08:24 36.079797 -115.135296 356 2193ft 0kts
01-Dec-13 08:25 36.079797 -115.135296 356 2193ft 0kts
01-Dec-13 08:26 36.079797 -115.135296 356 2193ft 0kts
01-Dec-13 08:27 36.079797 -115.135296 356 2193ft 0kts
01-Dec-13 08:28 36.079797 -115.135296 356 2193ft 0kts
01-Dec-13 08:29 36.079797 -115.135296 356 2193ft 0kts
01-Dec-13 08:30 36.079797 -115.135296 356 2193ft 0kts
01-Dec-13 08:31 36.079797 -115.135296 356 2193ft 0kts
01-Dec-13 08:32 36.079797 -115.135296 356 2193ft 0kts
01-Dec-13 08:33 36.079797 -115.135296 356 2193ft 0kts
01-Dec-13 08:34 36.079797 -115.135296 356 2193ft 0kts
01-Dec-13 08:35 36.079797 -115.135296 356 2193ft 0kts
01-Dec-13 08:36 36.079797 -115.135296 356 2193ft 0kts
01-Dec-13 08:37 36.079797 -115.135296 356 2193ft 0kts
01-Dec-13 08:38 36.079227 -115.135331 24 2193ft 2kts
01-Dec-13 08:39 36.078860 -115.135999 85 2193ft 0kts
01-Dec-13 08:40 36.078860 -115.135999 85 2193ft 0kts
01-Dec-13 08:41 36.078860 -115.135999 85 2193ft 0kts
01-Dec-13 08:42 36.078860 -115.135998 85 2193ft 0kts
01-Dec-13 08:43 36.079104 -115.134543 75 2193ft 1kts
01-Dec-13 08:44 36.078976 -115.133919 142 2193ft 4kts
01-Dec-13 08:45 36.077557 -115.133554 103 2193ft 4kts
01-Dec-13 08:46 36.077565 -115.130341 89 2193ft 11kts
01-Dec-13 08:47 36.077543 -115.126016 90 2193ft 13kts
01-Dec-13 08:48 36.077541 -115.122814 89 2193ft 6kts
01-Dec-13 08:49 36.077351 -115.121410 162 2193ft 1kts
01-Dec-13 08:50 36.077338 -115.121406 163 2193ft 0kts
01-Dec-13 08:51 36.076388 -115.121896 264 2193ft 7kts
01-Dec-13 08:52 36.076712 -115.153766 269 3325ft 170kts
01-Dec-13 08:53 36.076325 -115.212696 268 5727ft 249kts
01-Dec-13 08:54 36.024977 -115.277367 200 9817ft 297kts
01-Dec-13 08:55 35.934231 -115.305657 186 12891ft 379kts
01-Dec-13 08:56 35.828348 -115.311702 175 18103ft 376kts
01-Dec-13 08:57 35.722954 -115.299890 178 19331ft 379kts
01-Dec-13 08:58 35.632713 -115.358481 222 19381ft 378kts
01-Dec-13 08:59 35.558997 -115.454621 227 22704ft 391kts
01-Dec-13 09:00 35.483932 -115.555135 225 26268ft 403kts
01-Dec-13 09:01 35.405187 -115.661134 221 28665ft 432kts
01-Dec-13 09:02 35.324634 -115.767845 222 31727ft 430kts
01-Dec-13 09:03 35.241798 -115.876634 234 33105ft 456kts
01-Dec-13 09:04 35.153630 -115.994550 235 34670ft 474kts
01-Dec-13 09:05 35.064143 -116.112520 236 36379ft 482kts
01-Dec-13 09:06 34.972183 -116.233221 237 37985ft 482kts
01-Dec-13 09:07 34.880782 -116.352989 237 38980ft 494kts
01-Dec-13 09:08 34.786755 -116.474708 237 40456ft 488kts
01-Dec-13 09:09 34.690915 -116.593057 235 40410ft 495kts
01-Dec-13 09:10 34.594750 -116.710870 236 40407ft 478kts
01-Dec-13 09:11 34.500583 -116.826052 235 40393ft 487kts
01-Dec-13 09:12 34.403463 -116.944879 236 40379ft 492kts
01-Dec-13 09:13 34.305756 -117.063507 234 40367ft 505kts
01-Dec-13 09:14 34.208530 -117.180993 236 40321ft 469kts
01-Dec-13 09:15 34.114953 -117.293719 235 40317ft 484kts
01-Dec-13 09:16 34.020794 -117.407285 236 40321ft 466kts
01-Dec-13 09:17 33.933218 -117.522977 254 40304ft 453kts
01-Dec-13 09:18 33.920350 -117.662105 279 40309ft 402kts
01-Dec-13 09:19 33.923027 -117.800093 279 40311ft 419kts
01-Dec-13 09:20 33.925323 -117.940152 280 40296ft 420kts
01-Dec-13 09:21 33.928009 -118.084395 280 40290ft 440kts
01-Dec-13 09:22 33.930234 -118.229381 275 40261ft 408kts
01-Dec-13 09:23 33.932150 -118.367314 269 40309ft 418kts
01-Dec-13 09:24 33.926300 -118.506539 266 40272ft 412kts
01-Dec-13 09:25 33.914387 -118.646099 255 40179ft 426kts
01-Dec-13 09:26 33.899449 -118.790540 252 40309ft 442kts
01-Dec-13 09:27 33.884697 -118.940199 272 40305ft 457kts
01-Dec-13 09:28 33.870158 -119.096576 270 40281ft 479kts
01-Dec-13 09:29 33.854204 -119.259674 271 40295ft 503kts
01-Dec-13 09:30 33.837617 -119.430906 268 40288ft 521kts
01-Dec-13 09:31 33.819533 -119.606498 268 40297ft 528kts
01-Dec-13 09:32 33.802031 -119.782920 266 40291ft 536kts
01-Dec-13 09:33 33.783336 -119.963407 261 40296ft 544kts
01-Dec-13 09:34 33.765693 -120.133306 258 40334ft 470kts
01-Dec-13 09:35 33.750096 -120.279546 258 40315ft 431kts
01-Dec-13 09:36 33.734424 -120.418694 266 40293ft 398kts
01-Dec-13 09:37 33.721119 -120.552758 258 40297ft 415kts
01-Dec-13 09:38 33.708067 -120.667346 259 40292ft 407kts
01-Dec-13 09:39 33.692914 -120.803221 258 40299ft 417kts
01-Dec-13 09:40 33.677883 -120.940674 259 40297ft 409kts
01-Dec-13 09:41 33.662255 -121.078809 258 40304ft 429kts
01-Dec-13 09:42 33.645864 -121.220348 262 40306ft 425kts
01-Dec-13 09:43 33.629796 -121.363686 264 40311ft 434kts
01-Dec-13 09:44 33.612970 -121.507868 263 40313ft 435kts
01-Dec-13 09:45 33.596070 -121.650758 264 40313ft 431kts
01-Dec-13 09:46 33.579265 -121.793890 264 40314ft 429kts
01-Dec-13 09:47 33.562174 -121.935677 264 40313ft 428kts
01-Dec-13 09:48 33.545190 -122.077653 264 40313ft 429kts
01-Dec-13 09:49 33.527902 -122.219558 263 40313ft 431kts
01-Dec-13 09:50 33.510235 -122.362425 263 40313ft 432kts
01-Dec-13 09:51 33.492554 -122.505653 263 40313ft 433kts
01-Dec-13 09:52 33.469447 -122.648751 258 40313ft 442kts
01-Dec-13 09:53 33.440314 -122.789663 258 40314ft 437kts
01-Dec-13 09:54 33.410526 -122.932348 258 40314ft 435kts
01-Dec-13 09:55 33.381580 -123.072431 258 40314ft 433kts
01-Dec-13 09:56 33.352159 -123.212222 258 40314ft 432kts
01-Dec-13 09:57 33.322445 -123.352106 257 40305ft 435kts
01-Dec-13 09:58 33.292724 -123.493466 258 40307ft 437kts
01-Dec-13 09:59 33.262154 -123.635477 256 40294ft 442kts
01-Dec-13 10:00 33.231610 -123.777789 256 40245ft 447kts
01-Dec-13 10:01 33.200494 -123.921800 258 40302ft 436kts
01-Dec-13 10:02 33.169570 -124.063849 255 40266ft 451kts
01-Dec-13 10:03 33.138125 -124.208203 255 40260ft 444kts
01-Dec-13 10:04 33.106285 -124.352750 255 40243ft 448kts
01-Dec-13 10:05 33.074806 -124.495484 254 40243ft 449kts
01-Dec-13 10:06 33.042450 -124.639357 254 40244ft 446kts
01-Dec-13 10:07 33.010353 -124.781208 254 40244ft 452kts
01-Dec-13 10:08 32.977580 -124.925390 255 40247ft 448kts
01-Dec-13 10:09 32.944975 -125.070294 254 40242ft 449kts
01-Dec-13 10:10 32.911908 -125.213928 254 40238ft 450kts
01-Dec-13 10:11 32.878956 -125.358085 254 40238ft 451kts
01-Dec-13 10:12 32.845727 -125.501820 254 40241ft 450kts
01-Dec-13 10:13 32.811695 -125.646374 253 40239ft 451kts
01-Dec-13 10:14 32.778523 -125.789709 254 40243ft 448kts
01-Dec-13 10:15 32.744963 -125.931817 255 40249ft 450kts
01-Dec-13 10:16 32.710649 -126.076424 256 40251ft 451kts
01-Dec-13 10:17 32.676789 -126.219985 255 40250ft 451kts
01-Dec-13 10:18 32.642159 -126.363904 255 40251ft 453kts
01-Dec-13 10:19 32.607647 -126.508157 255 40251ft 453kts
01-Dec-13 10:20 32.572627 -126.652571 255 40251ft 454kts
01-Dec-13 10:21 32.537482 -126.796089 255 40250ft 453kts
01-Dec-13 10:22 32.502565 -126.940307 255 40253ft 451kts
01-Dec-13 10:23 32.467641 -127.082771 255 40254ft 450kts
01-Dec-13 10:24 32.432310 -127.225635 255 40263ft 449kts
01-Dec-13 10:25 32.402895 -127.344969 255 40986ft 453kts
01-Dec-13 10:27 32.330470 -127.633976 255 42087ft 461kts
01-Dec-13 10:28 32.294008 -127.778334 255 42257ft 461kts
01-Dec-13 10:29 32.256889 -127.923921 255 42266ft 458kts
01-Dec-13 10:30 32.219900 -128.070207 256 42273ft 466kts
01-Dec-13 10:31 32.182398 -128.215940 255 42274ft 461kts
01-Dec-13 10:32 32.145059 -128.360700 255 42272ft 456kts
01-Dec-13 10:33 32.107860 -128.504947 255 42275ft 462kts
01-Dec-13 10:34 32.069827 -128.649986 255 42276ft 461kts
01-Dec-13 10:35 32.032317 -128.794202 256 42275ft 463kts
01-Dec-13 10:36 31.993780 -128.940359 255 42276ft 466kts
01-Dec-13 10:37 31.954950 -129.086305 255 42277ft 464kts
01-Dec-13 10:38 31.916611 -129.231834 255 42278ft 466kts
01-Dec-13 10:39 31.877399 -129.377851 255 42278ft 464kts
01-Dec-13 10:40 31.838816 -129.522024 255 42279ft 462kts
01-Dec-13 10:41 31.799703 -129.666787 255 42279ft 462kts
01-Dec-13 10:42 31.760673 -129.809830 255 42279ft 460kts
01-Dec-13 10:43 31.721665 -129.954077 255 42279ft 463kts
01-Dec-13 10:44 31.681931 -130.098431 255 42306ft 463kts
01-Dec-13 10:45 31.641974 -130.243779 255 42308ft 464kts
01-Dec-13 10:46 31.601823 -130.389172 255 42304ft 471kts
01-Dec-13 10:47 31.561176 -130.534572 254 42287ft 466kts
01-Dec-13 10:48 31.520517 -130.680849 256 42385ft 480kts
01-Dec-13 10:49 31.479339 -130.827701 257 42395ft 473kts
01-Dec-13 10:50 31.437824 -130.975002 256 42361ft 467kts
01-Dec-13 10:51 31.396647 -131.120691 256 42396ft 479kts
01-Dec-13 10:52 31.355019 -131.266115 256 42387ft 472kts
01-Dec-13 10:53 31.312532 -131.415289 256 42397ft 477kts
01-Dec-13 10:54 31.269674 -131.563777 256 42400ft 482kts
01-Dec-13 10:55 31.226722 -131.712232 256 42402ft 482kts
01-Dec-13 10:56 31.183469 -131.861522 256 42402ft 484kts
01-Dec-13 10:57 31.140094 -132.009921 256 42403ft 479kts
01-Dec-13 10:58 31.096929 -132.157519 256 42403ft 479kts
01-Dec-13 10:59 31.053535 -132.303880 256 42403ft 478kts
01-Dec-13 11:00 31.009479 -132.451539 256 42403ft 477kts
01-Dec-13 11:01 30.966147 -132.597652 256 42404ft 478kts
01-Dec-13 11:02 30.921978 -132.744878 256 42404ft 485kts
01-Dec-13 11:03 30.876871 -132.894253 256 42404ft 487kts
01-Dec-13 11:04 30.832141 -133.043172 255 42403ft 482kts
01-Dec-13 11:05 30.787292 -133.190144 255 42403ft 481kts
01-Dec-13 11:06 30.750391 -133.311798 256 42404ft 480kts
01-Dec-13 11:07 30.698094 -133.482311 255 42403ft 478kts
01-Dec-13 11:08 30.652919 -133.628573 256 42404ft 477kts
01-Dec-13 11:09 30.608189 -133.774005 255 42404ft 478kts
01-Dec-13 11:10 30.570391 -133.895152 255 42404ft 480kts
01-Dec-13 11:11 30.524869 -134.041629 255 42404ft 483kts
01-Dec-13 11:12 30.479371 -134.187418 255 42403ft 481kts
01-Dec-13 11:13 30.432859 -134.334759 255 42403ft 481kts
01-Dec-13 11:14 30.387020 -134.480857 255 42404ft 484kts
01-Dec-13 11:15 30.340491 -134.626778 255 42403ft 479kts
01-Dec-13 11:16 30.294517 -134.771481 255 42403ft 479kts
01-Dec-13 11:17 30.247883 -134.916923 255 42403ft 477kts
01-Dec-13 11:18 30.201329 -135.060886 254 42404ft 480kts
01-Dec-13 11:19 30.154730 -135.206120 254 42404ft 482kts
01-Dec-13 11:20 30.098996 -135.377045 254 42404ft 487kts
01-Dec-13 11:21 30.059419 -135.499059 255 42403ft 486kts
01-Dec-13 11:22 30.011688 -135.644746 254 42404ft 484kts
01-Dec-13 11:23 29.963836 -135.789588 255 42403ft 484kts
01-Dec-13 11:24 29.916150 -135.934959 254 42403ft 483kts
01-Dec-13 11:25 29.867581 -136.080830 254 42407ft 480kts
01-Dec-13 11:26 29.820319 -136.223294 255 42406ft 483kts
01-Dec-13 11:27 29.771737 -136.368333 254 42406ft 486kts
01-Dec-13 11:28 29.722521 -136.514372 255 42407ft 487kts
01-Dec-13 11:29 29.673403 -136.660824 254 42406ft 490kts
01-Dec-13 11:30 29.623334 -136.808025 254 42407ft 491kts
01-Dec-13 11:31 29.573986 -136.953793 254 42407ft 488kts
01-Dec-13 11:32 29.524104 -137.099470 254 42408ft 488kts
01-Dec-13 11:33 29.474318 -137.245088 254 42407ft 486kts
01-Dec-13 11:34 29.424943 -137.389041 254 42408ft 483kts
01-Dec-13 11:35 29.375389 -137.531816 254 42407ft 486kts
01-Dec-13 11:36 29.325489 -137.676284 254 42407ft 488kts
01-Dec-13 11:37 29.274490 -137.822134 254 42409ft 491kts
01-Dec-13 11:38 29.224041 -137.966322 254 42411ft 488kts
01-Dec-13 11:39 29.173439 -138.110479 254 42412ft 485kts
01-Dec-13 11:40 29.122447 -138.254398 254 42412ft 485kts
01-Dec-13 11:41 29.072076 -138.397277 254 42413ft 483kts
01-Dec-13 11:42 29.021369 -138.539466 254 42413ft 482kts
01-Dec-13 11:43 28.970627 -138.681834 254 42413ft 481kts
01-Dec-13 11:44 28.919649 -138.824086 254 42414ft 492kts
01-Dec-13 11:45 28.866990 -138.969985 254 42413ft 494kts
01-Dec-13 11:46 28.815156 -139.114097 254 42415ft 492kts
01-Dec-13 11:47 28.762660 -139.258680 254 42413ft 488kts
01-Dec-13 11:48 28.710715 -139.401678 254 42413ft 486kts
01-Dec-13 11:49 28.658692 -139.543182 254 42413ft 483kts
01-Dec-13 11:50 28.605970 -139.685735 254 42413ft 483kts
01-Dec-13 11:51 28.553857 -139.826775 254 42413ft 481kts
01-Dec-13 11:52 28.501849 -139.967133 253 42413ft 484kts
01-Dec-13 11:53 28.458267 -140.084390 253 42414ft 489kts
01-Dec-13 11:54 28.395966 -140.251814 253 42414ft 491kts
01-Dec-13 11:55 28.351078 -140.371126 253 42413ft 489kts
01-Dec-13 11:56 28.297832 -140.512437 254 42413ft 486kts
01-Dec-13 11:57 28.244960 -140.652948 253 42402ft 482kts
01-Dec-13 11:58 28.191190 -140.794007 254 42373ft 477kts
01-Dec-13 11:59 28.138766 -140.932503 253 42407ft 485kts
01-Dec-13 12:00 28.086397 -141.068613 255 42195ft 439kts
01-Dec-13 12:10 27.595138 -142.332896 251 42173ft 415kts
01-Dec-13 12:11 27.547707 -142.451744 255 42190ft 427kts
01-Dec-13 12:12 27.498160 -142.577143 244 42149ft 445kts
01-Dec-13 12:13 27.446524 -142.707348 245 42149ft 466kts
01-Dec-13 12:14 27.391412 -142.844755 245 42149ft 490kts
01-Dec-13 12:15 27.335056 -142.985715 245 42143ft 490kts
01-Dec-13 12:16 27.278494 -143.125947 245 42143ft 491kts
01-Dec-13 12:17 27.221901 -143.265837 245 42142ft 491kts
01-Dec-13 12:18 27.165423 -143.405521 244 42141ft 492kts
01-Dec-13 12:19 27.108340 -143.545453 244 42140ft 491kts
01-Dec-13 12:20 27.051302 -143.685815 244 42140ft 491kts
01-Dec-13 12:21 26.994184 -143.824918 244 42140ft 491kts
01-Dec-13 12:22 26.936716 -143.964826 244 42140ft 491kts
01-Dec-13 12:23 26.879407 -144.103883 244 42140ft 491kts
01-Dec-13 12:24 26.821779 -144.242656 244 42140ft 491kts
01-Dec-13 12:25 26.764962 -144.380101 244 42140ft 491kts
01-Dec-13 12:26 26.707981 -144.516606 244 42140ft 491kts
01-Dec-13 12:27 26.649979 -144.655717 244 42140ft 491kts
01-Dec-13 12:28 26.591790 -144.794428 244 42140ft 491kts
01-Dec-13 12:29 26.533238 -144.933138 243 42140ft 491kts
01-Dec-13 12:30 26.475417 -145.071163 244 42140ft 491kts
01-Dec-13 12:31 26.417144 -145.208484 243 42140ft 491kts
01-Dec-13 12:32 26.358184 -145.347613 243 42140ft 491kts
01-Dec-13 12:33 26.300219 -145.483421 243 42140ft 491kts
01-Dec-13 12:34 26.241387 -145.620898 244 42140ft 491kts
01-Dec-13 12:35 26.183310 -145.756687 243 42140ft 491kts
01-Dec-13 12:36 26.122540 -145.897661 243 42140ft 491kts
01-Dec-13 12:37 26.063414 -146.034549 243 42140ft 491kts
01-Dec-13 12:38 26.003936 -146.172422 243 42140ft 491kts
01-Dec-13 12:39 25.944401 -146.309191 243 42140ft 491kts
01-Dec-13 12:40 25.884824 -146.445553 243 42140ft 491kts
01-Dec-13 12:41 25.825421 -146.582132 243 42140ft 491kts
01-Dec-13 12:42 25.765448 -146.718935 243 42140ft 491kts
01-Dec-13 12:43 25.715242 -146.832828 243 42140ft 491kts
01-Dec-13 12:44 25.655397 -146.969277 243 42140ft 491kts
01-Dec-13 12:45 25.595235 -147.105042 243 42140ft 491kts
01-Dec-13 12:46 25.534998 -147.241246 243 42139ft 491kts
01-Dec-13 12:47 25.474904 -147.376660 243 42139ft 491kts
01-Dec-13 12:48 25.414080 -147.512882 243 42139ft 491kts
01-Dec-13 12:49 25.353637 -147.648719 242 42139ft 491kts
01-Dec-13 12:50 25.292870 -147.783748 242 42139ft 491kts
01-Dec-13 12:51 25.232342 -147.918631 242 42139ft 491kts
01-Dec-13 12:52 25.170992 -148.054317 242 42139ft 490kts
01-Dec-13 12:53 25.109808 -148.189266 242 42139ft 491kts
01-Dec-13 12:54 25.048629 -148.324293 242 42139ft 491kts
01-Dec-13 12:55 24.986835 -148.459531 242 42139ft 490kts
01-Dec-13 12:56 24.925784 -148.593811 242 42139ft 490kts
01-Dec-13 12:57 24.864057 -148.728267 242 42139ft 490kts
01-Dec-13 12:58 24.802437 -148.862391 242 42139ft 490kts
01-Dec-13 12:59 24.740742 -148.996357 242 42139ft 490kts
01-Dec-13 13:00 24.678381 -149.130840 242 42138ft 490kts
01-Dec-13 13:01 24.616722 -149.264338 242 42139ft 490kts
01-Dec-13 13:02 24.554358 -149.398144 242 42139ft 490kts
01-Dec-13 13:03 24.492194 -149.531882 242 42138ft 490kts
01-Dec-13 13:04 24.429848 -149.665617 242 42138ft 490kts
01-Dec-13 13:05 24.366800 -149.799674 242 42138ft 490kts
01-Dec-13 13:06 24.304549 -149.932542 242 42120ft 490kts
01-Dec-13 13:07 24.244580 -150.059366 242 42023ft 484kts
01-Dec-13 13:08 24.182272 -150.191392 242 42022ft 485kts
01-Dec-13 13:09 24.119834 -150.322941 242 42008ft 486kts
01-Dec-13 13:10 24.057359 -150.453944 242 42003ft 486kts
01-Dec-13 13:11 23.994695 -150.585996 242 42004ft 486kts
01-Dec-13 13:12 23.932025 -150.716750 242 42003ft 486kts
01-Dec-13 13:13 23.869455 -150.847553 242 42003ft 486kts
01-Dec-13 13:14 23.806532 -150.978268 242 42004ft 486kts
01-Dec-13 13:15 23.743256 -151.109265 242 42003ft 486kts
01-Dec-13 13:16 23.680253 -151.239963 241 42003ft 485kts
01-Dec-13 13:17 23.616648 -151.370867 241 42004ft 485kts
01-Dec-13 13:18 23.553812 -151.500505 241 42003ft 485kts
01-Dec-13 13:19 23.490175 -151.631236 241 42003ft 485kts
01-Dec-13 13:20 23.426556 -151.761592 242 42004ft 485kts
01-Dec-13 13:21 23.362929 -151.891676 241 42004ft 485kts
01-Dec-13 13:22 23.298983 -152.021594 241 42003ft 485kts
01-Dec-13 13:23 23.235221 -152.151411 241 42003ft 485kts
01-Dec-13 13:24 23.171167 -152.280983 241 42004ft 485kts
01-Dec-13 13:25 23.107290 -152.409931 241 42003ft 485kts
01-Dec-13 13:26 23.043424 -152.538925 241 42003ft 485kts
01-Dec-13 13:27 22.978831 -152.668134 241 42004ft 485kts
01-Dec-13 13:28 22.914112 -152.796626 241 42003ft 485kts
01-Dec-13 13:29 22.859648 -152.904519 241 41228ft 477kts
01-Dec-13 13:30 22.795838 -153.031353 241 37689ft 480kts
01-Dec-13 13:31 22.732507 -153.156277 241 34976ft 462kts
01-Dec-13 13:32 22.671955 -153.275886 241 32490ft 445kts
01-Dec-13 13:33 22.612844 -153.392149 240 30196ft 428kts
01-Dec-13 13:34 22.555929 -153.503693 241 27786ft 419kts
01-Dec-13 13:35 22.501421 -153.610904 240 25807ft 400kts
01-Dec-13 13:36 22.449544 -153.712498 239 24621ft 356kts
01-Dec-13 13:37 22.400771 -153.807633 237 21898ft 362kts
01-Dec-13 13:38 22.368844 -153.904985 260 20373ft 342kts
01-Dec-13 13:39 22.366649 -154.007456 267 18075ft 341kts
01-Dec-13 13:40 22.368170 -154.107891 268 16221ft 325kts
01-Dec-13 13:41 22.369935 -154.203570 268 15526ft 319kts
01-Dec-13 13:42 22.371983 -154.300739 268 15407ft 320kts
01-Dec-13 13:43 22.373834 -154.396552 268 15279ft 317kts
01-Dec-13 13:44 22.375541 -154.492253 268 15149ft 321kts
01-Dec-13 13:45 22.377187 -154.587785 268 15012ft 316kts
01-Dec-13 13:46 22.379045 -154.683128 268 14879ft 316kts
01-Dec-13 13:47 22.380636 -154.778534 268 14752ft 316kts
01-Dec-13 13:48 22.382081 -154.873538 268 14619ft 315kts
01-Dec-13 13:49 22.383472 -154.968440 268 14485ft 315kts
01-Dec-13 13:50 22.385099 -155.063181 268 14351ft 313kts
01-Dec-13 13:51 22.386424 -155.157245 268 14220ft 313kts
01-Dec-13 13:52 22.387642 -155.251821 268 14095ft 313kts
01-Dec-13 13:53 22.388877 -155.346000 268 13961ft 312kts
01-Dec-13 13:54 22.390244 -155.440478 268 13829ft 313kts
01-Dec-13 13:55 22.391333 -155.533895 268 13697ft 311kts
01-Dec-13 13:56 22.392367 -155.627400 268 13567ft 311kts
01-Dec-13 13:57 22.393461 -155.721158 268 13442ft 310kts
01-Dec-13 13:58 22.394529 -155.815176 268 13304ft 310kts
01-Dec-13 13:59 22.395401 -155.908549 267 13180ft 311kts
01-Dec-13 14:00 22.396217 -156.001692 268 13052ft 309kts
01-Dec-13 14:01 22.397016 -156.095165 267 12926ft 311kts
01-Dec-13 14:02 22.397842 -156.189958 266 12814ft 315kts
01-Dec-13 14:03 22.372943 -156.276330 228 12686ft 306kts
01-Dec-13 14:04 22.318329 -156.346665 228 12553ft 305kts
01-Dec-13 14:05 22.263620 -156.417765 228 12427ft 304kts
01-Dec-13 14:06 22.209606 -156.487880 228 12303ft 304kts
01-Dec-13 14:07 22.155461 -156.558156 228 12177ft 303kts
01-Dec-13 14:08 22.101500 -156.628081 228 12052ft 303kts
01-Dec-13 14:09 22.047458 -156.698281 229 11920ft 302kts
01-Dec-13 14:10 21.993593 -156.767930 229 11791ft 301kts
01-Dec-13 14:11 21.939979 -156.837162 230 11667ft 301kts
01-Dec-13 14:12 21.886227 -156.906555 230 11542ft 300kts
01-Dec-13 14:13 21.832375 -156.976064 229 11414ft 300kts
01-Dec-13 14:14 21.778984 -157.044818 229 11290ft 300kts
01-Dec-13 14:15 21.725347 -157.113768 229 11057ft 299kts
01-Dec-13 14:16 21.671741 -157.182617 228 10844ft 299kts
01-Dec-13 14:17 21.626944 -157.240105 228 10676ft 298kts
01-Dec-13 14:18 21.573980 -157.308039 227 10541ft 300kts
01-Dec-13 14:19 21.521394 -157.375450 227 9887ft 271kts
01-Dec-13 14:20 21.473067 -157.437462 227 8072ft 269kts
01-Dec-13 14:21 21.425277 -157.498816 227 6367ft 264kts
01-Dec-13 14:22 21.383377 -157.552347 227 6062ft 220kts
01-Dec-13 14:23 21.343677 -157.602994 227 5667ft 221kts
01-Dec-13 14:24 21.329280 -157.666754 262 5508ft 227kts
01-Dec-13 14:25 21.327641 -157.735052 265 5444ft 227kts
01-Dec-13 14:26 21.327069 -157.803239 265 5376ft 226kts
01-Dec-13 14:27 21.326677 -157.870924 266 5321ft 227kts
01-Dec-13 14:28 21.326334 -157.939084 266 5265ft 227kts
01-Dec-13 14:29 21.325977 -158.006329 266 5206ft 224kts
01-Dec-13 14:30 21.325624 -158.073644 266 5142ft 214kts
01-Dec-13 14:31 21.325320 -158.134628 265 5099ft 202kts
01-Dec-13 14:32 21.325113 -158.195139 266 5040ft 204kts
01-Dec-13 14:33 21.325976 -158.256455 266 5040ft 201kts
01-Dec-13 14:34 21.295937 -158.289655 161 4710ft 188kts
01-Dec-13 14:35 21.295636 -158.239516 65 4700ft 196kts
01-Dec-13 14:36 21.322325 -158.191389 80 3891ft 168kts
01-Dec-13 14:37 21.324702 -158.141520 92 3069ft 165kts
01-Dec-13 14:38 21.325134 -158.093008 94 2732ft 157kts
01-Dec-13 14:39 21.325209 -158.050226 92 1963ft 138kts
01-Dec-13 14:40 21.324887 -158.007517 90 1233ft 144kts
01-Dec-13 14:41 21.325384 -157.965785 90 544ft 147kts
01-Dec-13 14:42 21.325401 -157.926205 98 25ft 75kts
01-Dec-13 14:43 21.325227 -157.920993 90 25ft 0kts
01-Dec-13 14:44 21.325842 -157.919638 27 25ft 4kts
01-Dec-13 14:45 21.327580 -157.919279 352 25ft 8kts
01-Dec-13 14:46 21.329024 -157.918754 343 25ft 2kts
01-Dec-13 14:47 21.329333 -157.919743 277 25ft 0kts
01-Dec-13 14:48 21.329333 -157.919744 277 25ft 0kts

Navigation Log

Ident Type
Flight plan parsing failed, navigation log unavailable